Decoded Metar for KVIS (VISALIA MUNI in CA, USA) (IATA:VIS) | Meteo·Mobile Aviation Weather
aviador You're here:

KVIS Decoded Metar

VISALIA MUNI in CA, USA
Report Time2018-12-18 17:18:00
UTC Time2018-12-18 17:36:57
Flight Rules mvfr MVFR
WindCalm
Visibility6437 m
Phenomena:Mist
Clouds:Overcast 039 Hf
Expected CloudBase > 400 ft AGL from Temp-Dew spread
Ceiling3,900 ft
Temp09°C (ISA -5)
Dew Point08°C (94% RH)
AAT8.6°C
QNH1028 hPa
Density Alt-719 ft
Elevation292 ft
Report Wrong Elevation
Raw Report
KVIS 181718Z AUTO 00000KT 4SM BR OVC039 09/08 A3036 RMK AO2 PNO
$=

Extra information for KVIS:More info

Metar Taf Metar & Taf Last 4 Metars F.Rules Stats Wind Profile Meteogram Temp Stats Airport Information Weather charts Add Link Nearby VenuesMetar ALERT Operation Metar Decoded Social comments

AIRNAV info for KVIS